sensor_id;sensor_type;location;lat;lon;timestamp;P1;durP1;ratioP1;P2;durP2;ratioP2
52878;SDS011;38747;53.140;6.498;2023-04-24T00:01:27;6.80;;;3.40;;
52878;SDS011;38747;53.140;6.498;2023-04-24T00:03:54;7.23;;;3.20;;
52878;SDS011;38747;53.140;6.498;2023-04-24T00:06:25;6.78;;;3.38;;
52878;SDS011;38747;53.140;6.498;2023-04-24T00:08:58;6.50;;;3.17;;
52878;SDS011;38747;53.140;6.498;2023-04-24T00:11:25;5.93;;;3.05;;
52878;SDS011;38747;53.140;6.498;2023-04-24T00:13:51;7.65;;;2.95;;
52878;SDS011;38747;53.140;6.498;2023-04-24T00:16:17;6.77;;;2.87;;
52878;SDS011;38747;53.140;6.498;2023-04-24T00:18:43;5.50;;;2.60;;
52878;SDS011;38747;53.140;6.498;2023-04-24T00:21:10;6.22;;;1.98;;
52878;SDS011;38747;53.140;6.498;2023-04-24T00:23:36;4.23;;;1.53;;
52878;SDS011;38747;53.140;6.498;2023-04-24T00:26:01;3.42;;;1.35;;
52878;SDS011;38747;53.140;6.498;2023-04-24T00:28:27;4.13;;;1.42;;
52878;SDS011;38747;53.140;6.498;2023-04-24T00:30:53;3.63;;;1.60;;
52878;SDS011;38747;53.140;6.498;2023-04-24T00:33:19;3.78;;;1.45;;
52878;SDS011;38747;53.140;6.498;2023-04-24T00:35:45;4.18;;;1.50;;
52878;SDS011;38747;53.140;6.498;2023-04-24T00:38:11;4.60;;;1.60;;
52878;SDS011;38747;53.140;6.498;2023-04-24T00:40:36;3.78;;;1.35;;
52878;SDS011;38747;53.140;6.498;2023-04-24T00:43:02;4.67;;;1.30;;
52878;SDS011;38747;53.140;6.498;2023-04-24T00:45:28;3.70;;;1.27;;
52878;SDS011;38747;53.140;6.498;2023-04-24T00:47:56;2.53;;;1.05;;
52878;SDS011;38747;53.140;6.498;2023-04-24T00:50:22;2.60;;;1.03;;
52878;SDS011;38747;53.140;6.498;2023-04-24T00:52:49;2.58;;;1.10;;
52878;SDS011;38747;53.140;6.498;2023-04-24T00:55:15;2.35;;;1.10;;
52878;SDS011;38747;53.140;6.498;2023-04-24T00:57:42;2.80;;;1.20;;
52878;SDS011;38747;53.140;6.498;2023-04-24T01:00:09;3.45;;;1.50;;
52878;SDS011;38747;53.140;6.498;2023-04-24T01:02:38;3.47;;;1.10;;
52878;SDS011;38747;53.140;6.498;2023-04-24T01:05:06;3.35;;;1.08;;
52878;SDS011;38747;53.140;6.498;2023-04-24T01:07:33;2.83;;;0.98;;
52878;SDS011;38747;53.140;6.498;2023-04-24T01:09:59;3.15;;;1.20;;
52878;SDS011;38747;53.140;6.498;2023-04-24T01:12:25;2.83;;;1.20;;
52878;SDS011;38747;53.140;6.498;2023-04-24T01:14:51;2.40;;;1.00;;
52878;SDS011;38747;53.140;6.498;2023-04-24T01:17:17;3.60;;;1.20;;
52878;SDS011;38747;53.140;6.498;2023-04-24T01:19:42;2.50;;;1.00;;
52878;SDS011;38747;53.140;6.498;2023-04-24T01:22:14;2.42;;;1.10;;
52878;SDS011;38747;53.140;6.498;2023-04-24T01:24:41;2.42;;;1.00;;
52878;SDS011;38747;53.140;6.498;2023-04-24T01:27:08;3.67;;;1.17;;
52878;SDS011;38747;53.140;6.498;2023-04-24T01:29:35;2.83;;;1.15;;
52878;SDS011;38747;53.140;6.498;2023-04-24T01:32:02;3.42;;;1.30;;
52878;SDS011;38747;53.140;6.498;2023-04-24T01:34:29;3.83;;;1.20;;
52878;SDS011;38747;53.140;6.498;2023-04-24T01:36:55;4.20;;;1.50;;
52878;SDS011;38747;53.140;6.498;2023-04-24T01:39:21;3.00;;;1.20;;
52878;SDS011;38747;53.140;6.498;2023-04-24T01:41:51;3.00;;;1.38;;
52878;SDS011;38747;53.140;6.498;2023-04-24T01:44:17;3.70;;;1.65;;
52878;SDS011;38747;53.140;6.498;2023-04-24T01:46:43;3.47;;;1.40;;
52878;SDS011;38747;53.140;6.498;2023-04-24T01:49:09;3.35;;;1.60;;
52878;SDS011;38747;53.140;6.498;2023-04-24T01:51:35;4.47;;;1.60;;
52878;SDS011;38747;53.140;6.498;2023-04-24T01:54:01;3.55;;;1.58;;
52878;SDS011;38747;53.140;6.498;2023-04-24T01:56:28;4.03;;;1.80;;
52878;SDS011;38747;53.140;6.498;2023-04-24T01:58:55;4.37;;;1.90;;
52878;SDS011;38747;53.140;6.498;2023-04-24T02:01:23;4.20;;;1.60;;
52878;SDS011;38747;53.140;6.498;2023-04-24T02:03:49;3.92;;;1.65;;
52878;SDS011;38747;53.140;6.498;2023-04-24T02:06:15;4.60;;;1.98;;
52878;SDS011;38747;53.140;6.498;2023-04-24T02:08:41;4.90;;;2.17;;
52878;SDS011;38747;53.140;6.498;2023-04-24T02:11:08;4.47;;;2.03;;
52878;SDS011;38747;53.140;6.498;2023-04-24T02:13:34;4.93;;;2.13;;
52878;SDS011;38747;53.140;6.498;2023-04-24T02:16:00;5.93;;;2.10;;
52878;SDS011;38747;53.140;6.498;2023-04-24T02:18:26;4.80;;;2.33;;
52878;SDS011;38747;53.140;6.498;2023-04-24T02:20:52;4.80;;;2.38;;
52878;SDS011;38747;53.140;6.498;2023-04-24T02:23:18;4.73;;;2.27;;
52878;SDS011;38747;53.140;6.498;2023-04-24T02:25:44;5.20;;;2.60;;
52878;SDS011;38747;53.140;6.498;2023-04-24T02:28:10;5.88;;;2.40;;
52878;SDS011;38747;53.140;6.498;2023-04-24T02:30:36;5.10;;;2.67;;
52878;SDS011;38747;53.140;6.498;2023-04-24T02:33:02;5.13;;;2.67;;
52878;SDS011;38747;53.140;6.498;2023-04-24T02:35:28;5.17;;;2.70;;
52878;SDS011;38747;53.140;6.498;2023-04-24T02:37:54;5.10;;;2.70;;
52878;SDS011;38747;53.140;6.498;2023-04-24T02:40:19;5.37;;;2.83;;
52878;SDS011;38747;53.140;6.498;2023-04-24T02:42:45;5.40;;;2.72;;
52878;SDS011;38747;53.140;6.498;2023-04-24T02:45:10;5.13;;;2.63;;
52878;SDS011;38747;53.140;6.498;2023-04-24T02:47:36;5.32;;;2.80;;
52878;SDS011;38747;53.140;6.498;2023-04-24T02:50:02;5.53;;;2.80;;
52878;SDS011;38747;53.140;6.498;2023-04-24T02:52:28;5.72;;;3.15;;
52878;SDS011;38747;53.140;6.498;2023-04-24T02:54:54;6.10;;;3.17;;
52878;SDS011;38747;53.140;6.498;2023-04-24T02:57:19;7.05;;;3.50;;
52878;SDS011;38747;53.140;6.498;2023-04-24T02:59:45;6.38;;;3.40;;
52878;SDS011;38747;53.140;6.498;2023-04-24T03:02:11;6.20;;;3.23;;
52878;SDS011;38747;53.140;6.498;2023-04-24T03:04:36;6.60;;;3.50;;
52878;SDS011;38747;53.140;6.498;2023-04-24T03:07:02;7.07;;;3.80;;
52878;SDS011;38747;53.140;6.498;2023-04-24T03:09:29;7.70;;;3.83;;
52878;SDS011;38747;53.140;6.498;2023-04-24T03:11:55;7.07;;;4.07;;
52878;SDS011;38747;53.140;6.498;2023-04-24T03:14:21;6.82;;;3.80;;
52878;SDS011;38747;53.140;6.498;2023-04-24T03:16:47;7.70;;;4.27;;
52878;SDS011;38747;53.140;6.498;2023-04-24T03:19:13;7.75;;;4.70;;
52878;SDS011;38747;53.140;6.498;2023-04-24T03:21:38;8.93;;;5.07;;
52878;SDS011;38747;53.140;6.498;2023-04-24T03:24:06;9.13;;;5.18;;
52878;SDS011;38747;53.140;6.498;2023-04-24T03:26:33;9.02;;;4.90;;
52878;SDS011;38747;53.140;6.498;2023-04-24T03:28:58;10.63;;;5.30;;
52878;SDS011;38747;53.140;6.498;2023-04-24T03:31:24;9.45;;;6.00;;
52878;SDS011;38747;53.140;6.498;2023-04-24T03:33:51;10.85;;;6.22;;
52878;SDS011;38747;53.140;6.498;2023-04-24T03:36:16;10.83;;;6.33;;
52878;SDS011;38747;53.140;6.498;2023-04-24T03:38:44;9.80;;;6.35;;
52878;SDS011;38747;53.140;6.498;2023-04-24T03:41:10;8.80;;;5.85;;
52878;SDS011;38747;53.140;6.498;2023-04-24T03:43:36;9.65;;;5.90;;
52878;SDS011;38747;53.140;6.498;2023-04-24T03:46:03;9.83;;;5.97;;
52878;SDS011;38747;53.140;6.498;2023-04-24T03:48:28;8.88;;;5.63;;
52878;SDS011;38747;53.140;6.498;2023-04-24T03:50:54;9.25;;;5.45;;
52878;SDS011;38747;53.140;6.498;2023-04-24T03:53:20;9.50;;;6.10;;
52878;SDS011;38747;53.140;6.498;2023-04-24T03:55:46;9.30;;;6.05;;
52878;SDS011;38747;53.140;6.498;2023-04-24T03:58:12;9.40;;;5.50;;
52878;SDS011;38747;53.140;6.498;2023-04-24T04:00:39;8.53;;;5.60;;
52878;SDS011;38747;53.140;6.498;2023-04-24T04:03:05;8.30;;;5.55;;
52878;SDS011;38747;53.140;6.498;2023-04-24T04:05:31;11.50;;;5.38;;
52878;SDS011;38747;53.140;6.498;2023-04-24T04:07:57;9.73;;;4.87;;
52878;SDS011;38747;53.140;6.498;2023-04-24T04:10:22;8.45;;;5.30;;
52878;SDS011;38747;53.140;6.498;2023-04-24T04:12:48;7.90;;;5.03;;
52878;SDS011;38747;53.140;6.498;2023-04-24T04:15:14;7.83;;;5.07;;
52878;SDS011;38747;53.140;6.498;2023-04-24T04:17:40;7.53;;;4.83;;
52878;SDS011;38747;53.140;6.498;2023-04-24T04:20:06;7.50;;;4.78;;
52878;SDS011;38747;53.140;6.498;2023-04-24T04:22:35;8.32;;;4.93;;
52878;SDS011;38747;53.140;6.498;2023-04-24T04:25:01;8.77;;;5.10;;
52878;SDS011;38747;53.140;6.498;2023-04-24T04:27:27;8.60;;;4.97;;
52878;SDS011;38747;53.140;6.498;2023-04-24T04:29:57;7.80;;;4.65;;
52878;SDS011;38747;53.140;6.498;2023-04-24T04:32:29;7.38;;;4.40;;
52878;SDS011;38747;53.140;6.498;2023-04-24T04:34:59;7.45;;;4.57;;
52878;SDS011;38747;53.140;6.498;2023-04-24T04:37:28;7.27;;;4.23;;
52878;SDS011;38747;53.140;6.498;2023-04-24T04:39:54;7.10;;;4.55;;
52878;SDS011;38747;53.140;6.498;2023-04-24T04:42:20;7.57;;;4.05;;
52878;SDS011;38747;53.140;6.498;2023-04-24T04:44:46;7.03;;;3.90;;
52878;SDS011;38747;53.140;6.498;2023-04-24T04:47:11;7.35;;;4.25;;
52878;SDS011;38747;53.140;6.498;2023-04-24T04:49:38;7.35;;;4.15;;
52878;SDS011;38747;53.140;6.498;2023-04-24T04:52:04;6.90;;;4.20;;
52878;SDS011;38747;53.140;6.498;2023-04-24T04:54:30;7.50;;;4.20;;
52878;SDS011;38747;53.140;6.498;2023-04-24T04:56:56;6.97;;;4.05;;
52878;SDS011;38747;53.140;6.498;2023-04-24T04:59:22;7.25;;;4.07;;
52878;SDS011;38747;53.140;6.498;2023-04-24T05:01:48;7.70;;;3.80;;
52878;SDS011;38747;53.140;6.498;2023-04-24T05:04:13;7.93;;;3.47;;
52878;SDS011;38747;53.140;6.498;2023-04-24T05:06:39;6.30;;;3.63;;
52878;SDS011;38747;53.140;6.498;2023-04-24T05:09:05;5.63;;;3.00;;
52878;SDS011;38747;53.140;6.498;2023-04-24T05:11:32;5.78;;;2.40;;
52878;SDS011;38747;53.140;6.498;2023-04-24T05:13:58;5.43;;;2.30;;
52878;SDS011;38747;53.140;6.498;2023-04-24T05:16:23;5.93;;;2.30;;
52878;SDS011;38747;53.140;6.498;2023-04-24T05:18:49;6.10;;;2.50;;
52878;SDS011;38747;53.140;6.498;2023-04-24T05:21:17;4.97;;;2.28;;
52878;SDS011;38747;53.140;6.498;2023-04-24T05:23:43;5.27;;;1.90;;
52878;SDS011;38747;53.140;6.498;2023-04-24T05:26:09;4.57;;;1.70;;
52878;SDS011;38747;53.140;6.498;2023-04-24T05:28:34;3.10;;;1.20;;
52878;SDS011;38747;53.140;6.498;2023-04-24T05:31:01;4.82;;;1.50;;
52878;SDS011;38747;53.140;6.498;2023-04-24T05:33:27;3.35;;;1.17;;
52878;SDS011;38747;53.140;6.498;2023-04-24T05:35:53;2.70;;;1.00;;
52878;SDS011;38747;53.140;6.498;2023-04-24T05:38:19;2.55;;;0.98;;
52878;SDS011;38747;53.140;6.498;2023-04-24T05:40:45;2.80;;;0.90;;
52878;SDS011;38747;53.140;6.498;2023-04-24T05:43:11;2.80;;;1.00;;
52878;SDS011;38747;53.140;6.498;2023-04-24T05:45:43;4.53;;;0.88;;
52878;SDS011;38747;53.140;6.498;2023-04-24T05:48:12;3.33;;;0.95;;
52878;SDS011;38747;53.140;6.498;2023-04-24T05:51:01;2.17;;;0.80;;
52878;SDS011;38747;53.140;6.498;2023-04-24T05:53:27;3.27;;;1.00;;
52878;SDS011;38747;53.140;6.498;2023-04-24T05:55:53;1.90;;;0.70;;
52878;SDS011;38747;53.140;6.498;2023-04-24T05:58:19;2.30;;;1.10;;
52878;SDS011;38747;53.140;6.498;2023-04-24T06:00:45;3.08;;;1.10;;
52878;SDS011;38747;53.140;6.498;2023-04-24T06:03:11;2.80;;;1.00;;
52878;SDS011;38747;53.140;6.498;2023-04-24T06:05:40;3.30;;;1.35;;
52878;SDS011;38747;53.140;6.498;2023-04-24T06:08:06;4.82;;;1.63;;
52878;SDS011;38747;53.140;6.498;2023-04-24T06:10:32;3.50;;;1.30;;
52878;SDS011;38747;53.140;6.498;2023-04-24T06:12:58;4.30;;;1.60;;
52878;SDS011;38747;53.140;6.498;2023-04-24T06:15:27;4.68;;;1.42;;
52878;SDS011;38747;53.140;6.498;2023-04-24T06:17:56;7.38;;;2.22;;
52878;SDS011;38747;53.140;6.498;2023-04-24T06:20:22;5.70;;;1.85;;
52878;SDS011;38747;53.140;6.498;2023-04-24T06:22:48;5.53;;;2.10;;
52878;SDS011;38747;53.140;6.498;2023-04-24T06:25:14;4.57;;;1.65;;
52878;SDS011;38747;53.140;6.498;2023-04-24T06:27:41;4.65;;;2.00;;
52878;SDS011;38747;53.140;6.498;2023-04-24T06:30:06;5.53;;;2.20;;
52878;SDS011;38747;53.140;6.498;2023-04-24T06:32:33;5.78;;;2.05;;
52878;SDS011;38747;53.140;6.498;2023-04-24T06:34:59;5.50;;;2.65;;
52878;SDS011;38747;53.140;6.498;2023-04-24T06:37:25;5.10;;;2.27;;
52878;SDS011;38747;53.140;6.498;2023-04-24T06:39:54;5.83;;;2.20;;
52878;SDS011;38747;53.140;6.498;2023-04-24T06:45:02;5.40;;;2.38;;
52878;SDS011;38747;53.140;6.498;2023-04-24T06:47:37;6.38;;;2.40;;
52878;SDS011;38747;53.140;6.498;2023-04-24T06:50:03;5.00;;;1.92;;
52878;SDS011;38747;53.140;6.498;2023-04-24T06:52:35;4.77;;;2.20;;
52878;SDS011;38747;53.140;6.498;2023-04-24T06:55:04;5.68;;;2.28;;
52878;SDS011;38747;53.140;6.498;2023-04-24T06:57:31;5.22;;;2.10;;
52878;SDS011;38747;53.140;6.498;2023-04-24T06:59:57;5.63;;;1.80;;
52878;SDS011;38747;53.140;6.498;2023-04-24T07:02:24;4.50;;;1.80;;
52878;SDS011;38747;53.140;6.498;2023-04-24T07:04:50;3.67;;;1.38;;
52878;SDS011;38747;53.140;6.498;2023-04-24T07:07:16;3.55;;;1.38;;
52878;SDS011;38747;53.140;6.498;2023-04-24T07:09:42;4.03;;;1.20;;
52878;SDS011;38747;53.140;6.498;2023-04-24T07:12:11;3.70;;;1.30;;
52878;SDS011;38747;53.140;6.498;2023-04-24T07:14:37;3.42;;;1.35;;
52878;SDS011;38747;53.140;6.498;2023-04-24T07:17:03;4.70;;;1.25;;
52878;SDS011;38747;53.140;6.498;2023-04-24T07:19:30;4.80;;;1.17;;
52878;SDS011;38747;53.140;6.498;2023-04-24T07:21:56;4.47;;;1.17;;
52878;SDS011;38747;53.140;6.498;2023-04-24T07:24:26;3.50;;;1.20;;
52878;SDS011;38747;53.140;6.498;2023-04-24T07:26:52;3.60;;;1.30;;
52878;SDS011;38747;53.140;6.498;2023-04-24T07:29:19;5.20;;;1.42;;
52878;SDS011;38747;53.140;6.498;2023-04-24T07:31:46;5.15;;;1.50;;
52878;SDS011;38747;53.140;6.498;2023-04-24T07:34:12;6.97;;;1.30;;
52878;SDS011;38747;53.140;6.498;2023-04-24T07:36:38;2.97;;;1.17;;
52878;SDS011;38747;53.140;6.498;2023-04-24T07:39:07;5.88;;;1.67;;
52878;SDS011;38747;53.140;6.498;2023-04-24T07:41:33;6.90;;;1.50;;
52878;SDS011;38747;53.140;6.498;2023-04-24T07:44:01;5.63;;;1.30;;
52878;SDS011;38747;53.140;6.498;2023-04-24T07:46:27;3.83;;;1.38;;
52878;SDS011;38747;53.140;6.498;2023-04-24T07:48:55;5.78;;;1.38;;
52878;SDS011;38747;53.140;6.498;2023-04-24T07:51:21;5.27;;;1.50;;
52878;SDS011;38747;53.140;6.498;2023-04-24T07:53:54;6.40;;;2.00;;
52878;SDS011;38747;53.140;6.498;2023-04-24T07:56:20;6.88;;;2.72;;
52878;SDS011;38747;53.140;6.498;2023-04-24T07:58:46;8.77;;;2.78;;
52878;SDS011;38747;53.140;6.498;2023-04-24T08:01:12;10.43;;;3.87;;
52878;SDS011;38747;53.140;6.498;2023-04-24T08:03:38;9.27;;;4.40;;
52878;SDS011;38747;53.140;6.498;2023-04-24T08:06:03;10.70;;;5.03;;
52878;SDS011;38747;53.140;6.498;2023-04-24T08:08:29;10.77;;;5.20;;
52878;SDS011;38747;53.140;6.498;2023-04-24T08:10:55;13.32;;;5.65;;
52878;SDS011;38747;53.140;6.498;2023-04-24T08:13:21;13.98;;;6.63;;
52878;SDS011;38747;53.140;6.498;2023-04-24T08:15:47;14.47;;;5.00;;
52878;SDS011;38747;53.140;6.498;2023-04-24T08:18:13;13.73;;;6.15;;
52878;SDS011;38747;53.140;6.498;2023-04-24T08:20:40;13.93;;;6.68;;
52878;SDS011;38747;53.140;6.498;2023-04-24T08:23:06;14.10;;;6.60;;
52878;SDS011;38747;53.140;6.498;2023-04-24T08:25:33;16.02;;;7.10;;
52878;SDS011;38747;53.140;6.498;2023-04-24T08:28:01;21.73;;;7.65;;
52878;SDS011;38747;53.140;6.498;2023-04-24T08:30:30;16.52;;;7.07;;
52878;SDS011;38747;53.140;6.498;2023-04-24T08:32:56;15.57;;;6.80;;
52878;SDS011;38747;53.140;6.498;2023-04-24T08:35:22;18.42;;;7.28;;
52878;SDS011;38747;53.140;6.498;2023-04-24T08:37:51;14.88;;;7.07;;
52878;SDS011;38747;53.140;6.498;2023-04-24T08:40:17;12.68;;;6.30;;
52878;SDS011;38747;53.140;6.498;2023-04-24T08:42:47;14.80;;;6.93;;
52878;SDS011;38747;53.140;6.498;2023-04-24T08:45:14;16.08;;;6.38;;
52878;SDS011;38747;53.140;6.498;2023-04-24T08:47:41;15.38;;;6.55;;
52878;SDS011;38747;53.140;6.498;2023-04-24T08:50:07;16.88;;;5.85;;
52878;SDS011;38747;53.140;6.498;2023-04-24T08:52:34;15.73;;;6.60;;
52878;SDS011;38747;53.140;6.498;2023-04-24T08:55:00;13.07;;;5.73;;
52878;SDS011;38747;53.140;6.498;2023-04-24T08:57:30;14.80;;;6.05;;
52878;SDS011;38747;53.140;6.498;2023-04-24T08:59:57;14.15;;;6.18;;
52878;SDS011;38747;53.140;6.498;2023-04-24T09:02:23;13.73;;;6.30;;
52878;SDS011;38747;53.140;6.498;2023-04-24T09:04:53;13.35;;;6.30;;
52878;SDS011;38747;53.140;6.498;2023-04-24T09:07:21;14.10;;;6.10;;
52878;SDS011;38747;53.140;6.498;2023-04-24T09:09:50;15.35;;;6.20;;
52878;SDS011;38747;53.140;6.498;2023-04-24T09:12:17;13.07;;;6.07;;
52878;SDS011;38747;53.140;6.498;2023-04-24T09:14:44;11.55;;;5.97;;
52878;SDS011;38747;53.140;6.498;2023-04-24T09:17:13;12.25;;;5.03;;
52878;SDS011;38747;53.140;6.498;2023-04-24T09:19:40;9.17;;;4.50;;
52878;SDS011;38747;53.140;6.498;2023-04-24T09:22:06;11.73;;;4.75;;
52878;SDS011;38747;53.140;6.498;2023-04-24T09:24:33;9.32;;;4.05;;
52878;SDS011;38747;53.140;6.498;2023-04-24T09:27:00;11.55;;;4.03;;
52878;SDS011;38747;53.140;6.498;2023-04-24T09:29:26;9.23;;;4.15;;
52878;SDS011;38747;53.140;6.498;2023-04-24T09:31:53;10.63;;;5.00;;
52878;SDS011;38747;53.140;6.498;2023-04-24T09:34:22;10.88;;;4.43;;
52878;SDS011;38747;53.140;6.498;2023-04-24T09:36:53;8.88;;;4.15;;
52878;SDS011;38747;53.140;6.498;2023-04-24T09:39:19;9.65;;;4.32;;
52878;SDS011;38747;53.140;6.498;2023-04-24T09:41:46;9.17;;;3.40;;
52878;SDS011;38747;53.140;6.498;2023-04-24T09:44:22;12.30;;;4.00;;
52878;SDS011;38747;53.140;6.498;2023-04-24T09:46:54;11.32;;;3.95;;
52878;SDS011;38747;53.140;6.498;2023-04-24T09:49:28;25.90;;;4.30;;
52878;SDS011;38747;53.140;6.498;2023-04-24T09:52:10;11.17;;;3.60;;
52878;SDS011;38747;53.140;6.498;2023-04-24T09:54:36;10.23;;;3.95;;
52878;SDS011;38747;53.140;6.498;2023-04-24T09:57:03;8.75;;;3.10;;
52878;SDS011;38747;53.140;6.498;2023-04-24T09:59:30;9.32;;;3.00;;
52878;SDS011;38747;53.140;6.498;2023-04-24T10:01:56;9.52;;;3.83;;
52878;SDS011;38747;53.140;6.498;2023-04-24T10:04:27;11.13;;;3.20;;
52878;SDS011;38747;53.140;6.498;2023-04-24T10:06:54;12.60;;;3.00;;
52878;SDS011;38747;53.140;6.498;2023-04-24T10:09:22;7.82;;;2.88;;
52878;SDS011;38747;53.140;6.498;2023-04-24T10:11:50;7.13;;;2.60;;
52878;SDS011;38747;53.140;6.498;2023-04-24T10:14:20;9.73;;;3.08;;
52878;SDS011;38747;53.140;6.498;2023-04-24T10:16:48;10.30;;;2.53;;
52878;SDS011;38747;53.140;6.498;2023-04-24T10:19:14;7.15;;;2.50;;
52878;SDS011;38747;53.140;6.498;2023-04-24T10:21:42;9.88;;;2.30;;
52878;SDS011;38747;53.140;6.498;2023-04-24T10:24:14;7.68;;;2.35;;
52878;SDS011;38747;53.140;6.498;2023-04-24T10:26:42;7.32;;;2.25;;
52878;SDS011;38747;53.140;6.498;2023-04-24T10:29:10;6.20;;;2.33;;
52878;SDS011;38747;53.140;6.498;2023-04-24T10:31:40;7.88;;;2.10;;
52878;SDS011;38747;53.140;6.498;2023-04-24T10:34:10;5.70;;;1.77;;
52878;SDS011;38747;53.140;6.498;2023-04-24T10:36:38;8.75;;;1.90;;
52878;SDS011;38747;53.140;6.498;2023-04-24T10:39:11;8.70;;;2.50;;
52878;SDS011;38747;53.140;6.498;2023-04-24T10:41:38;6.60;;;1.90;;
52878;SDS011;38747;53.140;6.498;2023-04-24T10:44:08;10.82;;;2.30;;
52878;SDS011;38747;53.140;6.498;2023-04-24T10:46:35;8.23;;;1.77;;
52878;SDS011;38747;53.140;6.498;2023-04-24T10:49:06;7.40;;;1.80;;
52878;SDS011;38747;53.140;6.498;2023-04-24T10:51:47;8.93;;;1.90;;
52878;SDS011;38747;53.140;6.498;2023-04-24T10:56:52;5.13;;;1.70;;
52878;SDS011;38747;53.140;6.498;2023-04-24T10:59:25;7.25;;;1.77;;
52878;SDS011;38747;53.140;6.498;2023-04-24T11:02:02;7.47;;;1.92;;
52878;SDS011;38747;53.140;6.498;2023-04-24T11:04:29;8.32;;;1.92;;
52878;SDS011;38747;53.140;6.498;2023-04-24T11:06:56;8.47;;;1.60;;
52878;SDS011;38747;53.140;6.498;2023-04-24T11:09:22;8.68;;;1.60;;
52878;SDS011;38747;53.140;6.498;2023-04-24T11:20:09;6.03;;;1.30;;
52878;SDS011;38747;53.140;6.498;2023-04-24T11:22:38;5.15;;;1.55;;
52878;SDS011;38747;53.140;6.498;2023-04-24T11:25:08;7.32;;;1.52;;
52878;SDS011;38747;53.140;6.498;2023-04-24T11:27:43;5.85;;;1.48;;
52878;SDS011;38747;53.140;6.498;2023-04-24T11:30:19;9.25;;;1.67;;
52878;SDS011;38747;53.140;6.498;2023-04-24T11:32:50;5.53;;;1.43;;
52878;SDS011;38747;53.140;6.498;2023-04-24T11:35:17;8.20;;;1.40;;
52878;SDS011;38747;53.140;6.498;2023-04-24T11:37:45;5.90;;;1.40;;
52878;SDS011;38747;53.140;6.498;2023-04-24T11:40:15;7.07;;;1.33;;
52878;SDS011;38747;53.140;6.498;2023-04-24T11:42:45;4.97;;;1.38;;
52878;SDS011;38747;53.140;6.498;2023-04-24T11:47:44;7.03;;;1.80;;
52878;SDS011;38747;53.140;6.498;2023-04-24T11:50:14;8.63;;;2.05;;
52878;SDS011;38747;53.140;6.498;2023-04-24T11:52:41;8.90;;;1.55;;
52878;SDS011;38747;53.140;6.498;2023-04-24T11:55:12;8.20;;;1.27;;
52878;SDS011;38747;53.140;6.498;2023-04-24T11:57:52;3.73;;;1.00;;
52878;SDS011;38747;53.140;6.498;2023-04-24T12:00:25;6.32;;;1.30;;
52878;SDS011;38747;53.140;6.498;2023-04-24T12:03:04;4.00;;;1.00;;
52878;SDS011;38747;53.140;6.498;2023-04-24T12:05:35;6.63;;;1.42;;
52878;SDS011;38747;53.140;6.498;2023-04-24T12:08:01;4.10;;;1.00;;
52878;SDS011;38747;53.140;6.498;2023-04-24T12:10:28;6.27;;;1.00;;
52878;SDS011;38747;53.140;6.498;2023-04-24T12:12:56;6.07;;;1.30;;
52878;SDS011;38747;53.140;6.498;2023-04-24T12:15:23;3.92;;;1.10;;
52878;SDS011;38747;53.140;6.498;2023-04-24T12:17:52;6.18;;;1.40;;
52878;SDS011;38747;53.140;6.498;2023-04-24T12:20:30;3.83;;;1.00;;
52878;SDS011;38747;53.140;6.498;2023-04-24T12:22:58;4.90;;;0.82;;
52878;SDS011;38747;53.140;6.498;2023-04-24T12:25:25;2.92;;;1.10;;
52878;SDS011;38747;53.140;6.498;2023-04-24T12:27:54;3.75;;;1.13;;
52878;SDS011;38747;53.140;6.498;2023-04-24T12:30:30;4.82;;;1.10;;
52878;SDS011;38747;53.140;6.498;2023-04-24T12:32:58;4.33;;;1.20;;
52878;SDS011;38747;53.140;6.498;2023-04-24T12:35:26;5.95;;;1.10;;
52878;SDS011;38747;53.140;6.498;2023-04-24T12:37:53;5.13;;;0.90;;
52878;SDS011;38747;53.140;6.498;2023-04-24T12:40:20;3.00;;;0.70;;
52878;SDS011;38747;53.140;6.498;2023-04-24T12:42:47;3.10;;;0.73;;
52878;SDS011;38747;53.140;6.498;2023-04-24T12:45:15;3.20;;;0.80;;
52878;SDS011;38747;53.140;6.498;2023-04-24T12:47:42;2.40;;;0.80;;
52878;SDS011;38747;53.140;6.498;2023-04-24T12:50:10;4.43;;;0.82;;
52878;SDS011;38747;53.140;6.498;2023-04-24T12:52:37;4.45;;;1.00;;
52878;SDS011;38747;53.140;6.498;2023-04-24T12:55:04;7.43;;;1.20;;
52878;SDS011;38747;53.140;6.498;2023-04-24T12:57:33;4.30;;;1.00;;
52878;SDS011;38747;53.140;6.498;2023-04-24T13:00:00;3.80;;;0.80;;
52878;SDS011;38747;53.140;6.498;2023-04-24T13:02:29;3.78;;;0.95;;
52878;SDS011;38747;53.140;6.498;2023-04-24T13:04:56;6.57;;;1.05;;
52878;SDS011;38747;53.140;6.498;2023-04-24T13:07:23;6.65;;;1.00;;
52878;SDS011;38747;53.140;6.498;2023-04-24T13:09:49;3.90;;;0.80;;
52878;SDS011;38747;53.140;6.498;2023-04-24T13:12:18;6.15;;;0.88;;
52878;SDS011;38747;53.140;6.498;2023-04-24T13:14:45;4.90;;;1.20;;
52878;SDS011;38747;53.140;6.498;2023-04-24T13:17:11;4.40;;;0.88;;
52878;SDS011;38747;53.140;6.498;2023-04-24T13:19:40;3.43;;;0.80;;
52878;SDS011;38747;53.140;6.498;2023-04-24T13:22:11;4.00;;;1.00;;
52878;SDS011;38747;53.140;6.498;2023-04-24T13:24:38;4.30;;;0.80;;
52878;SDS011;38747;53.140;6.498;2023-04-24T13:27:05;2.47;;;0.60;;
52878;SDS011;38747;53.140;6.498;2023-04-24T13:29:31;3.13;;;0.82;;
52878;SDS011;38747;53.140;6.498;2023-04-24T13:32:00;4.10;;;0.60;;
52878;SDS011;38747;53.140;6.498;2023-04-24T13:34:26;4.85;;;0.70;;
52878;SDS011;38747;53.140;6.498;2023-04-24T13:36:55;2.30;;;0.60;;
52878;SDS011;38747;53.140;6.498;2023-04-24T13:39:22;4.03;;;0.80;;
52878;SDS011;38747;53.140;6.498;2023-04-24T13:41:49;3.13;;;0.80;;
52878;SDS011;38747;53.140;6.498;2023-04-24T13:44:15;3.27;;;0.80;;
52878;SDS011;38747;53.140;6.498;2023-04-24T13:46:43;3.83;;;0.73;;
52878;SDS011;38747;53.140;6.498;2023-04-24T13:49:10;2.60;;;0.65;;
52878;SDS011;38747;53.140;6.498;2023-04-24T13:51:36;4.07;;;0.70;;
52878;SDS011;38747;53.140;6.498;2023-04-24T13:54:02;3.60;;;0.80;;
52878;SDS011;38747;53.140;6.498;2023-04-24T13:56:28;4.32;;;0.80;;
52878;SDS011;38747;53.140;6.498;2023-04-24T13:58:53;5.53;;;0.70;;
52878;SDS011;38747;53.140;6.498;2023-04-24T14:01:19;2.65;;;0.60;;
52878;SDS011;38747;53.140;6.498;2023-04-24T14:03:49;3.47;;;0.70;;
52878;SDS011;38747;53.140;6.498;2023-04-24T14:06:15;3.47;;;1.27;;
52878;SDS011;38747;53.140;6.498;2023-04-24T14:08:41;5.65;;;1.13;;
52878;SDS011;38747;53.140;6.498;2023-04-24T14:11:06;6.83;;;1.13;;
52878;SDS011;38747;53.140;6.498;2023-04-24T14:13:32;7.03;;;1.45;;
52878;SDS011;38747;53.140;6.498;2023-04-24T14:15:58;7.13;;;1.30;;
52878;SDS011;38747;53.140;6.498;2023-04-24T14:18:27;6.45;;;1.48;;
52878;SDS011;38747;53.140;6.498;2023-04-24T14:20:52;6.63;;;1.33;;
52878;SDS011;38747;53.140;6.498;2023-04-24T14:23:18;8.93;;;1.40;;
52878;SDS011;38747;53.140;6.498;2023-04-24T14:25:44;7.78;;;1.40;;
52878;SDS011;38747;53.140;6.498;2023-04-24T14:28:10;5.50;;;1.58;;
52878;SDS011;38747;53.140;6.498;2023-04-24T14:30:36;6.13;;;1.40;;
52878;SDS011;38747;53.140;6.498;2023-04-24T14:33:02;7.72;;;1.30;;
52878;SDS011;38747;53.140;6.498;2023-04-24T14:35:29;7.03;;;1.27;;
52878;SDS011;38747;53.140;6.498;2023-04-24T14:37:56;6.83;;;1.63;;
52878;SDS011;38747;53.140;6.498;2023-04-24T14:40:22;4.57;;;1.30;;
52878;SDS011;38747;53.140;6.498;2023-04-24T14:42:48;6.88;;;1.40;;
52878;SDS011;38747;53.140;6.498;2023-04-24T14:45:14;6.53;;;1.00;;
52878;SDS011;38747;53.140;6.498;2023-04-24T14:47:40;5.65;;;1.25;;
52878;SDS011;38747;53.140;6.498;2023-04-24T14:50:06;6.93;;;1.40;;
52878;SDS011;38747;53.140;6.498;2023-04-24T14:52:33;7.07;;;1.30;;
52878;SDS011;38747;53.140;6.498;2023-04-24T14:54:59;8.13;;;1.33;;
52878;SDS011;38747;53.140;6.498;2023-04-24T14:57:24;7.60;;;1.48;;
52878;SDS011;38747;53.140;6.498;2023-04-24T14:59:54;5.70;;;1.40;;
52878;SDS011;38747;53.140;6.498;2023-04-24T15:02:19;5.28;;;1.27;;